Time;durP1;ratioP1;P1;durP2;ratioP2;P2;SDS_P1;SDS_P2;PMS_P1;PMS_P2;Temp;Humidity;BMP_temperature;BMP_pressure;BME280_temperature;BME280_humidity;BME280_pressure;Samples;Min_cycle;Max_cycle;Signal;HPM_P1;HPM_P2
2022/11/29 00:01:31;;;;;;;8.77;5.93;;;10.00;80.10;9.90;96149.00;;;;5048606;28;20209;-89
2022/11/29 00:03:59;;;;;;;6.60;5.47;;;10.00;79.50;9.90;96148.00;;;;5048536;28;20295;-88
2022/11/29 00:06:30;;;;;;;5.83;5.23;;;10.00;79.50;9.90;96144.00;;;;5047166;28;20278;-88
2022/11/29 00:09:00;;;;;;;6.17;5.20;;;10.00;79.50;9.90;96145.00;;;;5048401;28;20239;-88
2022/11/29 00:14:20;;;;;;;7.00;5.83;;;10.00;79.80;9.90;96151.00;;;;5048284;28;20681;-88
2022/11/29 00:16:52;;;;;;;8.07;5.73;;;10.00;79.80;9.90;96143.00;;;;5049438;28;20216;-88
2022/11/29 00:19:20;;;;;;;6.63;5.77;;;10.00;80.00;9.90;96137.00;;;;5049801;28;20204;-88
2022/11/29 00:21:47;;;;;;;9.50;5.93;;;10.00;80.00;9.90;96145.00;;;;5047610;28;20642;-88
2022/11/29 00:24:15;;;;;;;7.07;5.10;;;10.00;80.20;9.90;96147.00;;;;5045576;28;20244;-88
2022/11/29 00:26:42;;;;;;;9.10;5.63;;;10.00;80.30;9.90;96145.00;;;;5049451;28;20630;-88
2022/11/29 00:29:11;;;;;;;6.57;5.17;;;10.00;80.30;9.90;96142.00;;;;5048231;28;20240;-88
2022/11/29 00:31:39;;;;;;;7.87;5.67;;;10.00;80.40;9.90;96137.00;;;;5048378;28;20208;-89
2022/11/29 00:34:08;;;;;;;7.30;6.03;;;10.00;80.50;9.90;96132.00;;;;5047559;28;20255;-88
2022/11/29 00:36:36;;;;;;;16.20;5.93;;;10.00;80.50;9.90;96136.00;;;;5047356;28;20751;-87
2022/11/29 00:39:05;;;;;;;8.93;6.00;;;10.00;80.50;9.90;96135.00;;;;5047483;28;20232;-87
2022/11/29 00:41:33;;;;;;;6.17;5.57;;;10.00;80.60;9.90;96128.00;;;;5048786;28;20200;-87
2022/11/29 00:44:00;;;;;;;5.93;5.40;;;10.00;80.60;9.90;96131.00;;;;5047396;28;20256;-87
2022/11/29 00:46:27;;;;;;;6.83;6.17;;;10.00;80.60;9.90;96129.00;;;;5048050;28;20220;-87
2022/11/29 00:48:54;;;;;;;6.97;6.20;;;10.00;80.50;9.90;96130.00;;;;5044663;28;20291;-88
2022/11/29 00:51:23;;;;;;;6.63;5.87;;;10.00;80.50;9.90;96130.00;;;;5047815;28;20304;-87
2022/11/29 00:53:50;;;;;;;11.07;6.03;;;10.00;80.30;9.90;96132.00;;;;5046829;28;20236;-88
2022/11/29 00:56:17;;;;;;;10.43;6.00;;;10.00;80.30;9.90;96135.00;;;;5047106;28;20320;-88
2022/11/29 00:58:44;;;;;;;7.00;6.27;;;10.00;80.30;9.90;96133.00;;;;5046999;28;20264;-89
2022/11/29 01:01:12;;;;;;;7.43;5.43;;;10.00;80.40;9.90;96129.00;;;;5047111;28;20235;-88
2022/11/29 01:03:39;;;;;;;8.03;6.07;;;10.00;80.40;9.90;96132.00;;;;5047069;28;20248;-88
2022/11/29 01:06:08;;;;;;;7.90;6.20;;;10.00;80.30;9.90;96135.00;;;;5047166;28;20231;-87
2022/11/29 01:08:38;;;;;;;5.80;5.30;;;10.00;80.40;9.90;96133.00;;;;5047724;28;20232;-88
2022/11/29 01:11:08;;;;;;;9.77;6.23;;;10.00;80.40;9.90;96135.00;;;;5047031;28;20572;-88
2022/11/29 01:13:48;;;;;;;8.23;6.47;;;10.00;80.40;9.90;96127.00;;;;5047587;28;20294;-88
2022/11/29 01:16:16;;;;;;;13.77;6.23;;;10.00;80.40;9.90;96129.00;;;;5046793;28;20224;-88
2022/11/29 01:19:01;;;;;;;5.83;5.27;;;10.00;80.30;9.90;96124.00;;;;5046183;28;20196;-87
2022/11/29 01:24:38;;;;;;;15.23;6.17;;;10.00;80.50;9.90;96134.00;;;;5044889;28;20224;-87
2022/11/29 01:27:06;;;;;;;6.13;5.40;;;10.00;80.50;9.90;96141.00;;;;5047467;28;20251;-88
2022/11/29 01:29:33;;;;;;;6.10;5.40;;;10.00;80.50;9.90;96126.00;;;;5046484;28;20207;-89
2022/11/29 01:34:58;;;;;;;6.97;5.83;;;10.00;80.50;9.90;96139.00;;;;5043724;28;20732;-87
2022/11/29 01:40:19;;;;;;;6.90;5.43;;;10.00;80.60;9.90;96141.00;;;;5041642;28;20209;-88
2022/11/29 01:42:47;;;;;;;6.70;6.10;;;10.00;80.70;9.90;96133.00;;;;5044629;28;20287;-88
2022/11/29 01:45:24;;;;;;;8.10;6.80;;;10.00;80.60;9.90;96138.00;;;;5043440;28;20307;-88
2022/11/29 01:47:56;;;;;;;6.97;6.20;;;10.00;80.80;9.90;96136.00;;;;5044345;28;20196;-89
2022/11/29 01:50:24;;;;;;;6.20;5.63;;;10.00;80.90;9.90;96142.00;;;;5042787;28;20287;-90
2022/11/29 01:52:52;;;;;;;7.17;5.80;;;10.00;80.80;9.80;96137.00;;;;5045686;28;20205;-87
2022/11/29 01:55:21;;;;;;;6.40;5.80;;;10.00;80.80;9.90;96134.00;;;;5044100;28;20211;-87
2022/11/29 01:57:49;;;;;;;9.20;6.33;;;10.00;80.80;9.90;96131.00;;;;5044011;28;20221;-89
2022/11/29 02:00:19;;;;;;;7.20;5.67;;;10.00;80.70;9.80;96133.00;;;;5042192;28;20266;-89
2022/11/29 02:02:53;;;;;;;6.47;5.53;;;10.00;80.70;9.80;96131.00;;;;5043052;28;20232;-87
2022/11/29 02:05:22;;;;;;;7.50;6.10;;;10.00;80.80;9.80;96131.00;;;;5045858;28;20298;-88
2022/11/29 02:07:54;;;;;;;7.93;6.13;;;9.90;80.70;9.80;96131.00;;;;5046399;28;20307;-88
2022/11/29 02:10:43;;;;;;;6.57;5.90;;;10.00;80.90;9.90;96125.00;;;;5046970;28;20280;-88
2022/11/29 02:13:23;;;;;;;7.10;6.40;;;10.00;80.90;9.90;96127.00;;;;5047057;28;20228;-87
2022/11/29 02:16:01;;;;;;;6.73;6.03;;;10.00;80.80;9.90;96130.00;;;;5045508;28;20220;-87
2022/11/29 02:18:44;;;;;;;6.63;6.03;;;10.00;80.80;9.90;96127.00;;;;5046425;28;20197;-87
2022/11/29 02:21:39;;;;;;;7.10;6.40;;;10.00;80.80;9.90;96129.00;;;;5045772;28;20668;-88
2022/11/29 02:24:47;;;;;;;6.87;6.10;;;9.90;80.90;9.80;96123.00;;;;5046056;28;20243;-88
2022/11/29 02:28:09;;;;;;;6.87;6.17;;;10.00;81.00;9.80;96130.00;;;;5046852;28;20302;-87
2022/11/29 02:31:17;;;;;;;6.33;5.73;;;10.00;81.00;9.80;96126.00;;;;5042268;28;20208;-87
2022/11/29 02:34:17;;;;;;;6.77;5.73;;;9.90;80.80;9.80;96134.00;;;;5047182;28;20717;-89
2022/11/29 02:37:20;;;;;;;10.37;6.30;;;9.90;80.80;9.80;96128.00;;;;5045834;28;20258;-87
2022/11/29 02:40:28;;;;;;;7.13;6.30;;;9.90;80.90;9.70;96135.00;;;;5029558;28;20631;-88
2022/11/29 02:43:24;;;;;;;10.53;6.30;;;9.90;81.00;9.80;96134.00;;;;5045647;28;20220;-90
2022/11/29 02:46:24;;;;;;;6.77;5.87;;;9.90;81.00;9.70;96129.00;;;;5045772;28;20311;-87
2022/11/29 02:49:08;;;;;;;7.80;6.23;;;9.90;81.10;9.70;96132.00;;;;5045431;28;20225;-89
2022/11/29 02:51:46;;;;;;;6.37;5.77;;;9.90;81.20;9.70;96131.00;;;;5042718;28;21393;-88
2022/11/29 02:54:25;;;;;;;8.13;7.07;;;9.90;81.20;9.70;96134.00;;;;5045876;28;20203;-88
2022/11/29 02:57:00;;;;;;;6.97;6.27;;;9.80;81.10;9.70;96131.00;;;;5044626;28;20214;-88
2022/11/29 02:59:48;;;;;;;8.70;6.97;;;9.80;81.10;9.70;96131.00;;;;5046592;28;20637;-87
2022/11/29 03:02:28;;;;;;;7.10;6.40;;;9.80;81.20;9.70;96134.00;;;;5047371;28;20231;-88
2022/11/29 03:05:12;;;;;;;9.10;6.70;;;9.80;81.30;9.70;96144.00;;;;5044483;28;20244;-88
2022/11/29 03:07:53;;;;;;;7.97;6.60;;;9.80;81.30;9.70;96141.00;;;;5044681;28;20441;-88
2022/11/29 03:10:33;;;;;;;8.57;7.13;;;9.80;81.50;9.70;96140.00;;;;5044986;28;20231;-87
2022/11/29 03:13:10;;;;;;;7.33;6.63;;;9.80;81.50;9.70;96140.00;;;;5044974;28;20213;-87
2022/11/29 03:15:49;;;;;;;8.50;6.83;;;9.80;81.40;9.70;96139.00;;;;5045628;28;20200;-87
2022/11/29 03:18:41;;;;;;;10.87;7.57;;;9.80;81.40;9.70;96147.00;;;;5045877;28;20250;-89
2022/11/29 03:21:23;;;;;;;9.13;7.50;;;9.80;81.50;9.70;96147.00;;;;5045749;28;20283;-89
2022/11/29 03:23:55;;;;;;;6.83;6.13;;;9.80;81.50;9.70;96153.00;;;;5044362;28;20286;-89
2022/11/29 03:26:32;;;;;;;7.60;6.80;;;9.80;81.50;9.70;96153.00;;;;5044385;28;20666;-88
2022/11/29 03:29:09;;;;;;;8.30;7.37;;;9.80;81.60;9.70;96153.00;;;;5045799;28;20231;-87
2022/11/29 03:31:46;;;;;;;8.23;6.43;;;9.80;81.70;9.70;96153.00;;;;5044628;28;20224;-88
2022/11/29 03:34:29;;;;;;;8.87;6.90;;;9.80;81.70;9.70;96158.00;;;;5043871;28;20278;-88
2022/11/29 03:37:08;;;;;;;8.43;7.20;;;9.80;81.70;9.70;96150.00;;;;5045010;28;20298;-87
2022/11/29 03:39:50;;;;;;;7.60;6.90;;;9.80;81.70;9.70;96162.00;;;;5044706;28;20204;-88
2022/11/29 03:42:26;;;;;;;8.63;6.33;;;9.80;81.80;9.70;96154.00;;;;5044282;28;20327;-87
2022/11/29 03:45:03;;;;;;;8.40;7.30;;;9.80;81.80;9.70;96161.00;;;;5043404;28;20303;-87
2022/11/29 03:47:39;;;;;;;10.60;7.03;;;9.80;81.90;9.70;96165.00;;;;5042234;28;20235;-88
2022/11/29 03:50:16;;;;;;;8.27;7.07;;;9.80;81.90;9.70;96155.00;;;;5041096;28;20230;-88
2022/11/29 03:52:52;;;;;;;8.17;7.33;;;9.80;81.90;9.70;96161.00;;;;5042652;28;20287;-87
2022/11/29 03:55:49;;;;;;;9.23;7.50;;;9.80;82.00;9.70;96157.00;;;;5041749;28;20279;-88
2022/11/29 03:58:34;;;;;;;8.10;6.67;;;9.80;82.10;9.70;96159.00;;;;5042674;28;20287;-87
2022/11/29 04:01:49;;;;;;;8.07;6.87;;;9.90;82.10;9.70;96152.00;;;;5042911;28;21062;-89
2022/11/29 04:05:11;;;;;;;15.77;7.83;;;9.80;82.10;9.60;96159.00;;;;5042573;28;20224;-88
2022/11/29 04:08:37;;;;;;;8.97;6.80;;;9.80;82.20;9.60;96155.00;;;;5042324;28;20312;-87
2022/11/29 04:12:28;;;;;;;9.97;6.97;;;9.80;82.20;9.60;96160.00;;;;4974471;28;20672;-87
2022/11/29 04:15:40;;;;;;;8.27;6.77;;;9.80;82.20;9.60;96156.00;;;;5043584;28;20547;-87
2022/11/29 04:18:45;;;;;;;7.63;6.40;;;9.70;82.10;9.60;96154.00;;;;5042176;28;20748;-87
2022/11/29 04:21:57;;;;;;;8.20;7.00;;;9.70;82.20;9.60;96156.00;;;;5043274;28;20693;-88
2022/11/29 04:25:20;;;;;;;16.40;7.10;;;9.70;83.10;9.60;96160.00;;;;5043375;28;20244;-88
2022/11/29 04:28:12;;;;;;;8.43;6.57;;;9.70;82.50;9.50;96159.00;;;;5047909;28;20296;-90
2022/11/29 04:30:56;;;;;;;9.30;7.20;;;9.70;82.50;9.60;96154.00;;;;5047979;28;20729;-87
2022/11/29 04:34:25;;;;;;;8.13;6.83;;;9.70;82.60;9.60;96154.00;;;;5047906;28;20639;-89
2022/11/29 04:37:18;;;;;;;7.10;6.40;;;9.70;82.70;9.60;96162.00;;;;5046906;28;20232;-88
2022/11/29 04:40:26;;;;;;;8.13;6.83;;;9.70;82.70;9.60;96162.00;;;;5047454;28;20295;-87
2022/11/29 04:43:40;;;;;;;9.93;7.10;;;9.70;82.70;9.60;96162.00;;;;5045121;28;20229;-88
2022/11/29 04:46:34;;;;;;;6.47;5.87;;;9.70;82.60;9.60;96154.00;;;;5046068;28;20233;-88
2022/11/29 04:49:25;;;;;;;8.33;6.90;;;9.70;82.60;9.60;96164.00;;;;5048493;28;20197;-88
2022/11/29 04:52:40;;;;;;;7.80;7.00;;;9.70;82.70;9.60;96158.00;;;;5049403;28;20205;-87
2022/11/29 04:55:24;;;;;;;7.53;6.23;;;9.70;82.70;9.60;96160.00;;;;5019763;28;20296;-88
2022/11/29 04:58:01;;;;;;;8.30;7.10;;;9.70;82.70;9.60;96168.00;;;;5048994;28;20664;-87
2022/11/29 05:00:41;;;;;;;7.93;6.93;;;9.70;82.70;9.60;96168.00;;;;5047977;28;20188;-88
2022/11/29 05:03:20;;;;;;;7.97;7.17;;;9.70;82.60;9.60;96178.00;;;;5047738;28;20243;-88
2022/11/29 05:05:57;;;;;;;8.57;7.17;;;9.70;82.70;9.60;96168.00;;;;5048205;28;20223;-87
2022/11/29 05:08:44;;;;;;;9.50;7.20;;;9.70;82.70;9.60;96167.00;;;;5047989;28;20287;-88
2022/11/29 05:11:23;;;;;;;9.43;7.03;;;9.70;82.70;9.60;96168.00;;;;5049918;28;20567;-88
2022/11/29 05:14:01;;;;;;;8.00;6.63;;;9.70;82.70;9.60;96169.00;;;;5047182;28;20197;-88
2022/11/29 05:17:05;;;;;;;7.97;6.83;;;9.70;82.80;9.60;96167.00;;;;5047526;28;20217;-85
2022/11/29 05:20:00;;;;;;;8.53;6.37;;;9.70;82.80;9.60;96179.00;;;;5047784;28;20727;-84
2022/11/29 05:22:39;;;;;;;9.57;6.83;;;9.70;82.90;9.60;96178.00;;;;5047355;28;20294;-84
2022/11/29 05:25:35;;;;;;;8.77;7.07;;;9.70;82.90;9.70;96176.00;;;;5047502;28;20221;-84
2022/11/29 05:28:15;;;;;;;9.03;6.80;;;9.80;83.00;9.70;96176.00;;;;5047282;28;20695;-83
2022/11/29 05:31:28;;;;;;;7.73;6.53;;;9.80;82.90;9.70;96179.00;;;;5047664;28;20192;-84
2022/11/29 05:34:43;;;;;;;9.33;7.40;;;9.80;82.90;9.70;96184.00;;;;5025951;28;20228;-81
2022/11/29 05:37:26;;;;;;;6.67;6.00;;;9.80;82.90;9.70;96175.00;;;;5046642;28;20315;-82
2022/11/29 05:40:26;;;;;;;8.77;6.83;;;9.80;82.90;9.70;96189.00;;;;5045760;28;20291;-82
2022/11/29 05:43:25;;;;;;;8.57;6.97;;;9.80;82.80;9.70;96181.00;;;;5046441;28;20228;-82
2022/11/29 05:46:02;;;;;;;9.20;6.80;;;9.80;82.70;9.70;96180.00;;;;5047066;28;20645;-82
2022/11/29 05:48:44;;;;;;;8.43;6.87;;;9.80;82.70;9.70;96184.00;;;;5047697;28;20189;-82
2022/11/29 05:51:22;;;;;;;7.27;6.33;;;9.80;82.70;9.70;96187.00;;;;5046483;28;20200;-81
2022/11/29 05:54:07;;;;;;;7.97;6.50;;;9.80;82.70;9.70;96181.00;;;;5044707;28;20716;-82
2022/11/29 05:56:49;;;;;;;7.77;6.73;;;9.80;82.80;9.80;96184.00;;;;5045523;28;20309;-82
2022/11/29 05:59:21;;;;;;;9.63;7.50;;;9.80;82.90;9.80;96192.00;;;;5045390;28;20567;-83
2022/11/29 06:02:01;;;;;;;9.43;7.70;;;9.80;82.80;9.80;96191.00;;;;5044880;28;20260;-82
2022/11/29 06:04:48;;;;;;;8.53;7.17;;;9.80;82.80;9.80;96195.00;;;;5046103;28;20250;-82
2022/11/29 06:07:23;;;;;;;8.20;6.60;;;9.80;82.80;9.80;96184.00;;;;5044880;28;20216;-82
2022/11/29 06:09:59;;;;;;;6.90;6.20;;;9.90;82.90;9.80;96192.00;;;;5045725;28;20227;-82
2022/11/29 06:12:29;;;;;;;8.37;7.23;;;9.90;82.90;9.80;96188.00;;;;5046095;28;20211;-82
2022/11/29 06:15:57;;;;;;;6.87;6.17;;;9.90;82.90;9.80;96198.00;;;;5044878;28;20237;-82
2022/11/29 06:19:00;;;;;;;7.60;6.27;;;9.90;82.80;9.80;96200.00;;;;5045102;28;20242;-83
2022/11/29 06:21:39;;;;;;;7.40;6.33;;;9.90;82.80;9.80;96197.00;;;;5044983;28;20231;-84
2022/11/29 06:24:38;;;;;;;8.77;6.90;;;9.90;82.90;9.80;96199.00;;;;5066645;28;20219;-80
2022/11/29 06:27:38;;;;;;;7.77;6.47;;;9.90;82.70;9.90;96203.00;;;;5063416;28;20239;-80
2022/11/29 06:30:11;;;;;;;8.60;6.63;;;9.90;82.80;9.90;96204.00;;;;5056384;28;20231;-78
2022/11/29 06:32:50;;;;;;;7.30;6.40;;;9.90;82.80;9.90;96209.00;;;;5056352;28;20208;-80
2022/11/29 06:35:39;;;;;;;7.57;6.67;;;9.90;82.70;10.00;96213.00;;;;5055902;28;20200;-80
2022/11/29 06:38:17;;;;;;;12.10;6.60;;;10.00;82.80;10.00;96208.00;;;;5055830;28;20216;-81
2022/11/29 06:40:50;;;;;;;7.83;6.20;;;10.00;82.90;10.00;96209.00;;;;5056920;28;20232;-80
2022/11/29 06:43:18;;;;;;;11.33;6.23;;;10.00;82.90;10.00;96214.00;;;;5056119;28;20226;-80
2022/11/29 06:45:51;;;;;;;8.33;7.20;;;10.00;82.80;10.00;96216.00;;;;5056089;28;20479;-80
2022/11/29 06:48:25;;;;;;;12.63;6.93;;;10.00;82.80;10.10;96214.00;;;;5055254;28;20208;-80
2022/11/29 06:51:00;;;;;;;8.03;7.07;;;10.00;82.70;10.10;96216.00;;;;5055410;28;20199;-80
2022/11/29 06:53:41;;;;;;;7.67;6.70;;;10.00;82.70;10.10;96227.00;;;;5055000;28;20729;-80
2022/11/29 06:56:22;;;;;;;12.63;7.43;;;10.00;82.60;10.10;96216.00;;;;5050446;28;20263;-80
2022/11/29 06:59:02;;;;;;;9.43;6.70;;;10.00;82.60;10.10;96220.00;;;;5044354;28;20230;-80
2022/11/29 07:01:39;;;;;;;8.60;6.87;;;10.00;82.60;10.10;96231.00;;;;5054725;28;20279;-80
2022/11/29 07:04:50;;;;;;;9.33;6.57;;;10.00;82.40;10.10;96236.00;;;;5055041;28;20227;-80
2022/11/29 07:07:22;;;;;;;6.97;6.30;;;10.10;82.50;10.10;96234.00;;;;5041869;28;20224;-79
2022/11/29 07:09:58;;;;;;;11.83;7.50;;;10.10;82.60;10.10;96237.00;;;;5054547;28;20235;-80
2022/11/29 07:12:28;;;;;;;7.83;6.63;;;10.10;82.50;10.10;96236.00;;;;5054896;28;20267;-78
2022/11/29 07:14:56;;;;;;;8.57;7.20;;;10.10;82.60;10.10;96238.00;;;;5054193;28;20351;-79
2022/11/29 07:17:30;;;;;;;11.87;6.53;;;10.10;82.60;10.10;96239.00;;;;5053612;28;20658;-80
2022/11/29 07:20:21;;;;;;;7.27;6.57;;;10.10;82.50;10.20;96250.00;;;;5054143;28;20219;-82
2022/11/29 07:23:02;;;;;;;7.60;6.40;;;10.10;82.50;10.20;96250.00;;;;5055054;28;20250;-82
2022/11/29 07:25:43;;;;;;;7.60;6.33;;;10.10;82.50;10.20;96242.00;;;;5054766;28;20521;-82
2022/11/29 07:28:33;;;;;;;7.57;6.60;;;10.10;82.50;10.20;96244.00;;;;5055126;28;20235;-82
2022/11/29 07:31:12;;;;;;;8.00;6.77;;;10.10;82.40;10.20;96246.00;;;;5054724;28;20212;-82
2022/11/29 07:33:52;;;;;;;8.23;6.83;;;10.10;82.40;10.20;96246.00;;;;5054938;28;20220;-82
2022/11/29 07:36:34;;;;;;;8.60;6.83;;;10.20;82.50;10.20;96247.00;;;;5055952;28;20216;-82
2022/11/29 07:39:23;;;;;;;10.37;7.10;;;10.20;82.50;10.30;96252.00;;;;5056507;28;20288;-82
2022/11/29 07:42:13;;;;;;;7.73;6.60;;;10.20;82.50;10.30;96244.00;;;;5056850;28;20197;-82
2022/11/29 07:44:57;;;;;;;8.10;6.60;;;10.20;82.50;10.30;96243.00;;;;5057273;28;20204;-82
2022/11/29 07:47:24;;;;;;;8.10;6.73;;;10.20;82.60;10.30;96250.00;;;;5055741;28;20224;-84
2022/11/29 07:49:51;;;;;;;7.57;6.63;;;10.20;82.70;10.30;96256.00;;;;5054950;28;20615;-83
2022/11/29 07:52:19;;;;;;;8.40;7.20;;;10.20;82.60;10.30;96266.00;;;;5054728;28;20196;-82
2022/11/29 07:54:59;;;;;;;10.00;7.30;;;10.20;82.60;10.30;96260.00;;;;5054837;28;20262;-80
2022/11/29 07:57:27;;;;;;;7.57;6.40;;;10.20;82.60;10.30;96258.00;;;;5054054;28;20225;-82
2022/11/29 07:59:58;;;;;;;8.43;6.80;;;10.20;82.60;10.30;96256.00;;;;5058678;28;20236;-82
2022/11/29 08:02:30;;;;;;;10.07;7.27;;;10.30;82.60;10.30;96253.00;;;;5059602;28;20205;-82
2022/11/29 08:04:58;;;;;;;9.23;7.17;;;10.30;82.60;10.30;96259.00;;;;5058604;28;20207;-82
2022/11/29 08:07:25;;;;;;;8.00;7.07;;;10.30;82.70;10.40;96253.00;;;;5059540;28;20817;-80
2022/11/29 08:09:52;;;;;;;8.83;7.57;;;10.20;82.60;10.40;96265.00;;;;5058862;28;20213;-82
2022/11/29 08:12:20;;;;;;;8.53;6.80;;;10.30;82.60;10.40;96263.00;;;;5059842;28;20205;-82
2022/11/29 08:14:50;;;;;;;7.93;7.10;;;10.30;82.60;10.40;96259.00;;;;5058741;28;20204;-82
2022/11/29 08:17:32;;;;;;;;;;;;;;;;;;;;;
2022/11/29 08:20:40;;;;;;;8.13;7.33;;;10.30;82.50;10.40;96259.00;;;;5074820;28;20216;-81
2022/11/29 08:23:12;;;;;;;8.87;7.83;;;10.30;82.30;10.40;96270.00;;;;5048219;28;20212;-81
2022/11/29 08:25:39;;;;;;;10.43;7.90;;;10.30;82.50;10.40;96267.00;;;;5054682;28;20310;-83
2022/11/29 08:28:06;;;;;;;9.53;7.70;;;10.40;82.60;10.50;96273.00;;;;5054476;28;20710;-81
2022/11/29 08:30:34;;;;;;;9.67;7.73;;;10.40;82.60;10.50;96275.00;;;;5054838;28;20662;-82
2022/11/29 08:33:02;;;;;;;8.63;7.73;;;10.40;82.50;10.50;96285.00;;;;5054438;28;20220;-81
2022/11/29 08:35:30;;;;;;;9.17;8.00;;;10.40;82.50;10.50;96277.00;;;;5054708;28;20291;-82
2022/11/29 08:38:02;;;;;;;9.50;7.90;;;10.40;82.60;10.50;96274.00;;;;5055495;28;20208;-82
2022/11/29 08:40:29;;;;;;;9.27;7.50;;;10.40;82.60;10.60;96271.00;;;;5054899;28;20212;-82
2022/11/29 08:42:58;;;;;;;9.00;8.10;;;10.40;82.50;10.60;96285.00;;;;5054500;28;20215;-82
2022/11/29 08:45:25;;;;;;;10.27;8.23;;;10.40;82.40;10.60;96276.00;;;;5053729;28;20239;-82
2022/11/29 08:47:55;;;;;;;9.67;7.03;;;10.50;82.50;10.60;96272.00;;;;5055733;28;20240;-82
2022/11/29 08:50:24;;;;;;;8.87;7.57;;;10.40;82.40;10.60;96279.00;;;;5053635;28;20228;-82
2022/11/29 08:55:41;;;;;;;19.10;7.90;;;10.50;82.50;10.60;96288.00;;;;5054818;28;20208;-82
2022/11/29 08:58:12;;;;;;;9.53;7.83;;;10.50;82.50;10.60;96281.00;;;;5055658;28;20197;-83
2022/11/29 09:00:41;;;;;;;9.23;8.00;;;10.50;82.40;10.70;96283.00;;;;5054222;28;20196;-83
2022/11/29 09:05:54;;;;;;;9.17;8.20;;;10.50;82.50;10.70;96289.00;;;;5032114;28;20228;-82
2022/11/29 09:08:21;;;;;;;12.17;8.57;;;10.60;82.60;10.70;96293.00;;;;5054261;28;20196;-83
2022/11/29 09:10:49;;;;;;;8.80;7.63;;;10.60;82.60;10.70;96287.00;;;;5054017;28;20226;-82
2022/11/29 09:13:16;;;;;;;10.37;8.33;;;10.60;82.60;10.80;96293.00;;;;5054614;28;20312;-82
2022/11/29 09:15:44;;;;;;;9.53;7.80;;;10.60;82.50;10.80;96294.00;;;;5055173;28;20228;-82
2022/11/29 09:18:11;;;;;;;9.37;8.37;;;10.60;82.60;10.80;96292.00;;;;5055083;28;20834;-82
2022/11/29 09:20:42;;;;;;;9.87;8.30;;;10.60;82.60;10.80;96295.00;;;;5055175;28;20675;-83
2022/11/29 09:23:12;;;;;;;9.73;8.07;;;10.70;82.70;10.80;96291.00;;;;5054961;28;20559;-82
2022/11/29 09:25:40;;;;;;;9.23;8.33;;;10.70;82.70;10.90;96303.00;;;;5054077;28;20287;-83
2022/11/29 09:28:07;;;;;;;10.83;8.63;;;10.70;82.60;10.90;96307.00;;;;5054803;28;20276;-83
2022/11/29 09:30:36;;;;;;;9.90;7.80;;;10.70;82.50;10.90;96303.00;;;;5054815;28;20291;-83
2022/11/29 09:33:07;;;;;;;10.53;7.77;;;10.70;82.50;10.90;96305.00;;;;5055218;28;20231;-82
2022/11/29 09:35:41;;;;;;;8.27;7.47;;;10.80;82.50;10.90;96303.00;;;;5054811;28;20212;-83
2022/11/29 09:38:13;;;;;;;11.73;8.60;;;10.80;82.40;11.00;96306.00;;;;5051519;28;20247;-82
2022/11/29 09:40:52;;;;;;;9.23;7.27;;;10.80;82.40;11.00;96305.00;;;;5054223;28;20670;-83
2022/11/29 09:43:31;;;;;;;10.50;8.43;;;10.90;82.60;11.00;96303.00;;;;5054428;28;20250;-83
2022/11/29 09:46:14;;;;;;;8.87;7.60;;;10.90;82.50;11.00;96305.00;;;;5054168;28;20658;-83
2022/11/29 09:49:08;;;;;;;10.60;7.40;;;10.90;82.40;11.00;96310.00;;;;5055172;28;20556;-82
2022/11/29 09:51:48;;;;;;;10.87;7.93;;;10.90;82.10;11.10;96308.00;;;;5047762;28;20258;-82
2022/11/29 09:54:31;;;;;;;9.67;7.83;;;10.90;82.10;11.10;96303.00;;;;5053444;28;20636;-83
2022/11/29 09:56:59;;;;;;;9.13;7.43;;;10.90;82.20;11.10;96313.00;;;;5053228;28;20312;-83
2022/11/29 09:59:35;;;;;;;8.87;7.97;;;10.90;82.90;11.10;96310.00;;;;5054008;28;20201;-82
2022/11/29 10:02:47;;;;;;;8.20;7.13;;;10.90;82.10;11.10;96320.00;;;;5053843;28;20232;-82
2022/11/29 10:05:21;;;;;;;10.13;7.93;;;11.00;82.00;11.10;96311.00;;;;5001427;28;20257;-82
2022/11/29 10:08:47;;;;;;;9.93;8.13;;;11.00;82.30;11.20;96309.00;;;;5007390;28;20225;-82
2022/11/29 10:11:21;;;;;;;8.87;7.97;;;11.00;82.20;11.20;96311.00;;;;5048084;28;20220;-82
2022/11/29 10:13:55;;;;;;;12.80;8.20;;;11.00;82.20;11.20;96312.00;;;;5048659;28;20239;-82
2022/11/29 10:16:36;;;;;;;8.93;7.53;;;11.00;82.10;11.20;96314.00;;;;5047194;28;20320;-83
2022/11/29 10:19:15;;;;;;;10.60;8.83;;;11.00;82.10;11.20;96317.00;;;;5048422;28;20227;-84
2022/11/29 10:21:47;;;;;;;11.47;8.50;;;11.00;82.20;11.20;96307.00;;;;5049749;28;20228;-83
2022/11/29 10:24:32;;;;;;;8.83;7.93;;;11.00;82.10;11.20;96306.00;;;;5048568;28;20652;-82
2022/11/29 10:27:02;;;;;;;9.40;7.90;;;11.10;82.10;11.20;96310.00;;;;5053735;28;20251;-80
2022/11/29 10:29:30;;;;;;;8.77;7.93;;;11.10;82.20;11.20;96304.00;;;;5056073;28;20573;-80
2022/11/29 10:32:05;;;;;;;12.07;8.23;;;11.10;82.20;11.20;96308.00;;;;5055396;28;20232;-83
2022/11/29 10:34:32;;;;;;;8.47;7.53;;;11.10;82.10;11.20;96306.00;;;;5052488;28;20223;-81
2022/11/29 10:37:01;;;;;;;10.97;8.63;;;11.10;82.10;11.20;96303.00;;;;5054950;28;20652;-82
2022/11/29 10:39:41;;;;;;;10.97;8.57;;;11.10;82.10;11.30;96298.00;;;;5054993;28;20278;-82
2022/11/29 10:45:04;;;;;;;8.87;7.97;;;11.10;82.00;11.20;96306.00;;;;5053560;28;20204;-81
2022/11/29 10:47:34;;;;;;;9.83;8.33;;;11.10;82.00;11.20;96299.00;;;;5054532;28;20260;-81
2022/11/29 10:50:01;;;;;;;15.03;9.37;;;11.10;82.00;11.30;96296.00;;;;5054846;28;20273;-81
2022/11/29 10:52:28;;;;;;;10.30;8.07;;;11.10;82.10;11.30;96293.00;;;;5053598;28;20204;-82
2022/11/29 10:55:03;;;;;;;10.30;8.70;;;11.10;82.20;11.30;96294.00;;;;5053749;28;20287;-82
2022/11/29 10:57:31;;;;;;;11.43;8.77;;;11.10;82.10;11.30;96302.00;;;;5054135;28;20266;-82
2022/11/29 11:00:28;;;;;;;10.87;7.90;;;11.10;82.00;11.30;96295.00;;;;5054151;28;20204;-82
2022/11/29 11:02:55;;;;;;;10.57;8.37;;;11.20;82.00;11.30;96292.00;;;;5047249;28;20232;-83
2022/11/29 11:05:26;;;;;;;11.73;8.77;;;11.20;82.00;11.30;96301.00;;;;5054146;28;20224;-82
2022/11/29 11:07:58;;;;;;;9.57;8.57;;;11.20;82.10;11.30;96304.00;;;;5054331;28;20651;-82
2022/11/29 11:10:29;;;;;;;10.33;9.23;;;11.20;82.10;11.40;96303.00;;;;5054267;28;20196;-82
2022/11/29 11:13:18;;;;;;;11.93;8.23;;;11.20;82.20;11.40;96299.00;;;;5054066;28;20627;-82
2022/11/29 11:15:46;;;;;;;10.00;8.90;;;11.20;82.00;11.40;96298.00;;;;5053514;28;20220;-82
2022/11/29 11:18:22;;;;;;;11.57;8.57;;;11.20;82.10;11.40;96310.00;;;;5054224;28;20621;-82
2022/11/29 11:20:56;;;;;;;10.97;8.80;;;11.30;82.10;11.40;96309.00;;;;5054091;28;20204;-82
2022/11/29 11:23:26;;;;;;;9.73;8.50;;;11.30;82.20;11.40;96310.00;;;;5054174;28;20220;-82
2022/11/29 11:26:04;;;;;;;10.37;8.33;;;11.30;82.10;11.40;96310.00;;;;5053907;28;20248;-82
2022/11/29 11:28:42;;;;;;;9.87;8.87;;;11.30;82.00;11.50;96303.00;;;;5054304;28;20219;-82
2022/11/29 11:31:12;;;;;;;11.93;8.23;;;11.30;82.00;11.40;96307.00;;;;5053791;28;20248;-82
2022/11/29 11:33:41;;;;;;;9.80;8.20;;;11.30;82.00;11.50;96311.00;;;;5057814;28;20238;-82
2022/11/29 11:36:14;;;;;;;9.00;8.10;;;11.30;82.10;11.50;96306.00;;;;5061043;28;20225;-82
2022/11/29 11:38:50;;;;;;;8.07;7.27;;;11.30;82.00;11.50;96311.00;;;;5061061;28;20711;-82
2022/11/29 11:42:35;;;;;;;10.43;8.17;;;11.30;82.10;11.50;96313.00;;;;5060647;28;20239;-82
2022/11/29 11:44:31;;;;;;;9.00;7.73;;;11.30;82.10;11.50;96314.00;;;;5060542;28;20201;-82
2022/11/29 11:47:01;;;;;;;8.70;7.77;;;11.40;82.00;11.50;96317.00;;;;5060223;28;20308;-82
2022/11/29 11:49:35;;;;;;;8.80;7.90;;;11.40;82.00;11.60;96313.00;;;;5060209;28;20745;-82
2022/11/29 11:52:07;;;;;;;8.90;8.00;;;11.40;82.00;11.60;96313.00;;;;5060828;28;20264;-82
2022/11/29 11:54:35;;;;;;;8.67;7.67;;;11.40;82.10;11.60;96307.00;;;;5060789;28;20204;-82
2022/11/29 11:57:03;;;;;;;7.83;7.07;;;11.40;82.00;11.60;96312.00;;;;5060797;28;20224;-82
2022/11/29 11:59:31;;;;;;;8.93;8.07;;;11.40;82.00;11.60;96311.00;;;;5060739;28;20294;-82
2022/11/29 12:01:59;;;;;;;8.80;7.90;;;11.40;82.10;11.60;96311.00;;;;5060582;28;20203;-82
2022/11/29 12:04:35;;;;;;;8.70;7.80;;;11.40;82.20;11.60;96316.00;;;;5060573;28;20275;-82
2022/11/29 12:07:09;;;;;;;8.97;7.73;;;11.40;82.10;11.60;96311.00;;;;5060976;28;20231;-82
2022/11/29 12:09:43;;;;;;;11.93;8.47;;;11.40;82.00;11.60;96309.00;;;;5061170;28;20652;-82
2022/11/29 12:12:21;;;;;;;8.53;7.67;;;11.40;81.80;11.60;96309.00;;;;5060570;28;20290;-82
2022/11/29 12:14:57;;;;;;;9.50;8.20;;;11.40;81.70;11.60;96317.00;;;;5060671;28;20215;-82